Knoxville, TN

6:05 PM EDT en Octubre 25, 2014 (GMT -0400)
Fountain City | Change Station
CLOSE
Current Station
Estación meteorológica personal
Location: Knoxville, TN
Altura: 1288 ft
Estaciones meteorológicas cercanas

Alt 1288 ft 36.06 °N, 83.91 °W | Updated 5 minutes ago

Muy nublado
Muy nublado
68.1 ° F
Sensación térmica 68.1 ° F
N
0.0
Viento Variable Viento desde Norte
Gusts 1.0 mph

Hoy
Alta -- | Baja -- ° F
--% Posibilidad de precipitaciones
Ayer
Alta -- | Baja -- ° F
Precip. -- pul
7:51 AM 6:47 PM
Creciente, 4% visible
Presión 29.99 pul
Visibilidad 10.0 Millas
Nubes Nubes dispersas 5500 ft
Punto de rocío 50 ° F
Humedad 52%
Precipitaciones 0.00 pul
Espesor de la nieve No disponible.
UV 0 de una escala de 12
Polen .80 de una escala de 12
Ozono Buena
PM2.5 Moderada
Flu Activity No Activity
METAR KTYS 252153Z 22005KT 10SM SCT055 20/09 A3000 RMK AO2 SLP156 T02000094

More Conditions Fewer Conditions

Presión 29.99 pul
Visibilidad 10.0 Millas
Nubes Nubes dispersas 5500 ft
Punto de rocío 50 ° F
Humedad 52%
Precipitaciones 0.00 pul
Espesor de la nieve No disponible.
UV 0 de una escala de 12
Polen .80 de una escala de 12
Ozono Buena
PM2.5 Moderada
Flu Activity No Activity
METAR KTYS 252153Z 22005KT 10SM SCT055 20/09 A3000 RMK AO2 SLP156 T02000094

More Conditions Fewer Conditions

10-Day Weather Forecast

Almanac

Astronomía

Oct. 25, 2014 Salida Puesta
Hora real 7:51 AM EDT 6:47 PM EDT
Crepúsculo civil 7:25 AM EDT 7:13 PM EDT
Crepúsculo náutico 6:55 AM EDT 7:43 PM EDT
Crepúsculo astronómico 6:25 AM EDT 8:13 PM EDT
Luna 9:27 AM EDT 8:12 PM EDT
Horas de luz 11h 48m
Horas de luz
10h 55m
Tomorrow will be 2m 5s shorter.
Creciente, 4% of the Moon is Illuminated
Hoy
Creciente
Oct 30
Cuarto creciente
Nov 6
Luna llena
Nov 14
Cuarto menguante
Nov 22
Nueva

Extremos de hoy

Máximos del estado Bajos del estado

Community

WunderPhotos

Upload Photos

1,765,009 ¡fotos cargadas!

Nearby

Calidad del aire

  Calidad del aire Índice AQ Contaminante
Ayer Buena
OZONE
Ayer Buena
PM2.5
Real Moderada
PM2.5
Real Buena
OZONE
Sábado Moderada
PM2.5
Sábado Buena
OZONE
Domingo Moderada
PM2.5
Domingo Buena
OZONE
Lunes Moderada
PM2.5
Lunes Buena
OZONE

Grosos de nieve

Estación Profundido Altura
No tenemos constancia de nieve nueva.

Actividad de terremotos

Ciudad Distance Mag. Tiempo y dato
No hay informes recientes de la actividad sísmica.
Magnitud mínima muestra es 2,5.

Temperaturas de aguas costeras

Lugar Temperatura
Sin partes meteorológicos de las estaciones

Estaciones meteorológicas cercanas